createdAt,value
2023-02-17T00:01:00.423Z,11.93
2023-02-17T00:05:12.114Z,10.25
2023-02-17T00:09:24.387Z,11.10
2023-02-17T00:13:36.083Z,12.25
2023-02-17T00:17:47.690Z,10.90
2023-02-17T00:22:01.563Z,11.23
2023-02-17T00:26:14.269Z,13.10
2023-02-17T00:30:27.297Z,11.82
2023-02-17T00:34:39.138Z,12.10
2023-02-17T00:38:53.597Z,9.93
2023-02-17T00:43:05.972Z,11.70
2023-02-17T00:47:17.585Z,9.32
2023-02-17T00:51:29.147Z,10.65
2023-02-17T00:55:41.316Z,9.75
2023-02-17T00:59:52.976Z,9.30
2023-02-17T01:04:05.465Z,7.90
2023-02-17T01:08:18.133Z,9.27
2023-02-17T01:12:29.730Z,8.68
2023-02-17T01:16:47.269Z,7.88
2023-02-17T01:20:58.870Z,8.60
2023-02-17T01:25:10.507Z,8.15
2023-02-17T01:29:22.219Z,8.52
2023-02-17T01:33:33.819Z,9.18
2023-02-17T01:37:45.746Z,11.10
2023-02-17T01:41:57.399Z,7.53
2023-02-17T01:46:09.548Z,9.88
2023-02-17T01:50:25.259Z,9.43
2023-02-17T01:54:47.968Z,11.35
2023-02-17T01:59:07.032Z,10.13
2023-02-17T02:03:19.096Z,12.70
2023-02-17T02:07:34.210Z,14.18
2023-02-17T02:11:51.184Z,11.52
2023-02-17T02:16:18.988Z,13.20
2023-02-17T02:20:43.095Z,13.50
2023-02-17T02:25:24.358Z,13.00
2023-02-17T02:29:45.297Z,14.73
2023-02-17T02:34:01.307Z,15.43
2023-02-17T02:38:39.283Z,14.90
2023-02-17T02:42:51.059Z,17.23
2023-02-17T02:47:26.140Z,15.07
2023-02-17T02:51:54.676Z,16.95
2023-02-17T02:56:34.647Z,17.58
2023-02-17T03:01:06.014Z,17.20
2023-02-17T03:05:51.828Z,14.40
2023-02-17T03:10:04.801Z,14.63
2023-02-17T03:14:20.619Z,12.52
2023-02-17T03:18:33.187Z,13.32
2023-02-17T03:22:47.552Z,13.57
2023-02-17T03:27:00.154Z,12.18
2023-02-17T03:31:11.844Z,12.70
2023-02-17T03:35:24.964Z,15.25
2023-02-17T03:39:37.018Z,13.27
2023-02-17T03:43:48.677Z,10.73
2023-02-17T03:48:00.459Z,12.63
2023-02-17T03:52:12.049Z,9.50
2023-02-17T03:56:24.042Z,10.05
2023-02-17T04:00:35.719Z,10.63
2023-02-17T04:04:47.463Z,10.50
2023-02-17T04:08:59.014Z,10.95
2023-02-17T04:13:10.739Z,9.77
2023-02-17T04:17:22.278Z,10.93
2023-02-17T04:21:34.031Z,9.88
2023-02-17T04:25:46.694Z,11.05
2023-02-17T04:29:58.355Z,9.23
2023-02-17T04:34:09.932Z,9.50
2023-02-17T04:38:21.500Z,9.35
2023-02-17T04:42:33.091Z,11.77
2023-02-17T04:46:44.661Z,12.32
2023-02-17T04:50:56.331Z,11.00
2023-02-17T04:55:08.379Z,13.73
2023-02-17T04:59:20.100Z,13.02
2023-02-17T05:03:31.871Z,13.35
2023-02-17T05:07:43.419Z,13.95
2023-02-17T05:11:55.063Z,13.88
2023-02-17T05:16:07.068Z,12.93
2023-02-17T05:20:18.916Z,19.48
2023-02-17T05:24:30.498Z,17.80
2023-02-17T05:28:42.123Z,17.77
2023-02-17T05:32:53.853Z,16.88
2023-02-17T05:37:05.736Z,18.50
2023-02-17T05:41:18.234Z,18.35
2023-02-17T05:45:29.824Z,14.77
2023-02-17T05:49:41.364Z,16.08
2023-02-17T05:53:54.104Z,13.68
2023-02-17T05:58:05.836Z,14.48
2023-02-17T06:02:17.401Z,14.52
2023-02-17T06:06:29.063Z,14.23
2023-02-17T06:10:41.668Z,13.43
2023-02-17T06:14:53.243Z,11.93
2023-02-17T06:19:05.362Z,15.00
2023-02-17T06:23:17.334Z,15.27
2023-02-17T06:27:29.003Z,25.58
2023-02-17T06:31:40.984Z,12.32
2023-02-17T06:35:52.948Z,12.43
2023-02-17T06:40:05.189Z,12.60
2023-02-17T06:44:16.788Z,12.18
2023-02-17T06:48:28.464Z,12.25
2023-02-17T06:52:42.081Z,14.30
2023-02-17T06:56:53.606Z,12.73
2023-02-17T07:01:05.817Z,12.95
2023-02-17T07:05:17.537Z,13.82
2023-02-17T07:09:29.192Z,13.38
2023-02-17T07:13:41.092Z,15.05
2023-02-17T07:17:52.874Z,12.25
2023-02-17T07:22:04.568Z,13.98
2023-02-17T07:26:16.393Z,11.55
2023-02-17T07:30:28.124Z,14.75
2023-02-17T07:34:39.742Z,12.68
2023-02-17T07:38:51.368Z,16.38
2023-02-17T07:43:02.963Z,13.02
2023-02-17T07:47:14.617Z,12.60
2023-02-17T07:51:26.265Z,12.50
2023-02-17T07:55:37.983Z,13.73
2023-02-17T07:59:49.672Z,14.27
2023-02-17T08:04:01.295Z,13.82
2023-02-17T08:08:31.554Z,12.98
2023-02-17T08:13:09.281Z,11.27
2023-02-17T08:17:20.868Z,11.90
2023-02-17T08:21:32.903Z,12.10
2023-02-17T08:25:44.527Z,11.30
2023-02-17T08:29:56.500Z,10.60
2023-02-17T08:34:11.576Z,10.48
2023-02-17T08:38:23.623Z,11.75
2023-02-17T08:42:35.258Z,9.07
2023-02-17T08:46:48.284Z,8.93
2023-02-17T08:50:59.978Z,9.18
2023-02-17T08:55:11.617Z,9.52
2023-02-17T08:59:23.247Z,9.35
2023-02-17T09:03:37.695Z,9.00
2023-02-17T09:07:49.341Z,8.13
2023-02-17T09:12:01.387Z,8.13
2023-02-17T09:16:13.048Z,8.25
2023-02-17T09:20:25.591Z,6.35
2023-02-17T09:24:38.814Z,6.13
2023-02-17T09:28:50.585Z,5.57
2023-02-17T09:33:03.781Z,6.97
2023-02-17T09:37:17.520Z,7.65
2023-02-17T09:41:48.329Z,5.80
2023-02-17T09:46:07.905Z,6.72
2023-02-17T09:50:44.078Z,6.18
2023-02-17T09:55:18.724Z,5.65
2023-02-17T09:59:41.556Z,6.47
2023-02-17T10:04:02.897Z,5.47
2023-02-17T10:08:23.271Z,4.35
2023-02-17T10:12:43.681Z,7.07
2023-02-17T10:17:06.332Z,5.32
2023-02-17T10:21:25.575Z,7.25
2023-02-17T10:25:55.677Z,7.35
2023-02-17T10:30:18.911Z,6.13
2023-02-17T10:34:37.008Z,6.07
2023-02-17T10:39:33.127Z,5.28
2023-02-17T10:43:45.824Z,4.25
2023-02-17T10:48:07.856Z,6.28
2023-02-17T10:52:23.407Z,4.82
2023-02-17T10:56:53.743Z,7.22
2023-02-17T11:01:06.363Z,5.45
2023-02-17T11:05:26.907Z,5.72
2023-02-17T11:09:45.402Z,6.18
2023-02-17T11:14:05.944Z,8.88
2023-02-17T11:18:26.574Z,5.20
2023-02-17T11:22:41.077Z,5.07
2023-02-17T11:27:01.955Z,6.35
2023-02-17T11:31:28.501Z,5.82
2023-02-17T11:35:47.189Z,5.57
2023-02-17T11:40:45.395Z,5.53
2023-02-17T11:44:59.954Z,5.30
2023-02-17T11:50:03.818Z,6.85
2023-02-17T11:54:15.432Z,6.65
2023-02-17T11:58:43.644Z,5.63
2023-02-17T12:03:40.947Z,6.07
2023-02-17T12:08:13.154Z,11.23
2023-02-17T12:12:51.399Z,5.50
2023-02-17T12:17:18.763Z,6.95
2023-02-17T12:22:01.585Z,6.72
2023-02-17T12:26:46.423Z,9.82
2023-02-17T12:31:18.622Z,8.60
2023-02-17T12:35:53.273Z,8.18
2023-02-17T12:40:16.235Z,4.72
2023-02-17T12:44:42.512Z,9.43
2023-02-17T12:49:00.173Z,6.82
2023-02-17T12:53:19.999Z,7.05
2023-02-17T12:57:46.461Z,9.48
2023-02-17T13:02:02.438Z,5.28
2023-02-17T13:06:37.407Z,7.32
2023-02-17T13:11:07.322Z,5.32
2023-02-17T13:15:48.528Z,7.55
2023-02-17T13:20:11.589Z,8.02
2023-02-17T13:25:40.945Z,6.32
2023-02-17T13:30:02.088Z,6.22
2023-02-17T13:34:25.928Z,7.03
2023-02-17T13:39:05.279Z,7.35
2023-02-17T13:43:20.312Z,7.00
2023-02-17T13:47:37.829Z,7.43
2023-02-17T13:51:49.822Z,5.68
2023-02-17T13:56:04.965Z,7.55
2023-02-17T14:00:20.856Z,6.68
2023-02-17T14:04:32.661Z,6.05
2023-02-17T14:08:44.397Z,7.65
2023-02-17T14:12:57.172Z,5.55
2023-02-17T14:17:32.451Z,8.10
2023-02-17T14:22:05.617Z,6.32
2023-02-17T14:26:48.209Z,2.97
2023-02-17T14:31:09.613Z,7.57
2023-02-17T14:35:23.781Z,9.25
2023-02-17T14:39:35.702Z,5.95
2023-02-17T14:43:47.458Z,3.72
2023-02-17T14:47:59.287Z,5.28
2023-02-17T14:52:22.754Z,8.68
2023-02-17T14:56:39.082Z,7.55
2023-02-17T15:00:51.668Z,6.35
2023-02-17T15:05:03.365Z,7.65
2023-02-17T15:09:19.041Z,11.77
2023-02-17T15:13:31.995Z,5.32
2023-02-17T15:17:44.583Z,5.38
2023-02-17T15:21:57.254Z,6.32
2023-02-17T15:26:10.735Z,6.00
2023-02-17T15:30:23.013Z,9.43
2023-02-17T15:34:35.362Z,7.65
2023-02-17T15:38:47.034Z,6.47
2023-02-17T15:43:06.006Z,8.20
2023-02-17T15:47:20.643Z,4.82
2023-02-17T15:51:32.398Z,5.82
2023-02-17T15:55:44.163Z,8.18
2023-02-17T15:59:56.126Z,8.38
2023-02-17T16:04:11.486Z,5.22
2023-02-17T16:08:23.199Z,8.20
2023-02-17T16:12:34.904Z,6.18
2023-02-17T16:16:46.663Z,7.05
2023-02-17T16:20:58.396Z,9.10
2023-02-17T16:25:10.127Z,13.15
2023-02-17T16:29:22.269Z,13.18
2023-02-17T16:33:34.422Z,10.50
2023-02-17T16:37:52.958Z,10.65
2023-02-17T16:42:05.012Z,9.65
2023-02-17T16:46:30.943Z,9.88
2023-02-17T16:50:42.656Z,10.73
2023-02-17T16:54:54.648Z,9.70
2023-02-17T16:59:06.317Z,7.18
2023-02-17T17:03:19.198Z,8.18
2023-02-17T17:07:31.301Z,8.60
2023-02-17T17:11:43.047Z,8.02
2023-02-17T17:15:57.093Z,8.57
2023-02-17T17:20:13.755Z,6.82
2023-02-17T17:24:25.613Z,9.23
2023-02-17T17:28:37.504Z,10.40
2023-02-17T17:32:49.164Z,29.10
2023-02-17T17:37:00.753Z,15.38
2023-02-17T17:41:13.386Z,7.35
2023-02-17T17:45:25.274Z,11.10
2023-02-17T17:49:36.896Z,8.40
2023-02-17T17:53:49.953Z,13.65
2023-02-17T17:58:01.581Z,5.93
2023-02-17T18:02:13.178Z,7.30
2023-02-17T18:06:29.736Z,10.20
2023-02-17T18:10:42.807Z,8.13
2023-02-17T18:14:55.130Z,7.25
2023-02-17T18:19:08.291Z,7.78
2023-02-17T18:23:19.873Z,11.27
2023-02-17T18:27:44.345Z,8.43
2023-02-17T18:31:57.407Z,52.25
2023-02-17T18:36:15.711Z,18.25
2023-02-17T18:40:29.178Z,12.55
2023-02-17T18:44:40.707Z,19.58
2023-02-17T18:48:52.509Z,13.75
2023-02-17T18:53:05.389Z,15.60
2023-02-17T18:57:17.171Z,10.43
2023-02-17T19:01:35.186Z,10.60
2023-02-17T19:05:46.880Z,12.80
2023-02-17T19:09:58.577Z,9.77
2023-02-17T19:14:10.263Z,11.68
2023-02-17T19:18:21.967Z,12.82
2023-02-17T19:22:37.598Z,11.02
2023-02-17T19:26:49.172Z,8.38
2023-02-17T19:31:00.937Z,14.30
2023-02-17T19:35:12.697Z,13.18
2023-02-17T19:39:24.442Z,13.32
2023-02-17T19:43:36.376Z,14.52
2023-02-17T19:47:48.020Z,15.95
2023-02-17T19:51:59.746Z,16.70
2023-02-17T19:56:26.469Z,14.40
2023-02-17T20:00:39.164Z,15.98
2023-02-17T20:04:50.869Z,15.45
2023-02-17T20:09:05.621Z,19.38
2023-02-17T20:13:17.262Z,25.48
2023-02-17T20:17:28.978Z,21.00
2023-02-17T20:21:44.728Z,17.77
2023-02-17T20:25:58.460Z,15.35
2023-02-17T20:30:10.513Z,24.85
2023-02-17T20:34:37.416Z,19.58
2023-02-17T20:38:50.160Z,21.02
2023-02-17T20:43:01.847Z,18.75
2023-02-17T20:47:13.493Z,19.52
2023-02-17T20:51:25.161Z,18.58
2023-02-17T20:55:36.848Z,22.40
2023-02-17T20:59:48.592Z,23.25
2023-02-17T21:04:00.208Z,24.90
2023-02-17T21:08:11.954Z,23.70
2023-02-17T21:12:23.701Z,22.00
2023-02-17T21:16:35.858Z,26.27
2023-02-17T21:20:47.645Z,25.35
2023-02-17T21:24:59.255Z,18.60
2023-02-17T21:29:10.883Z,17.33
2023-02-17T21:33:22.603Z,24.42
2023-02-17T21:37:59.093Z,19.38
2023-02-17T21:42:10.750Z,24.85
2023-02-17T21:46:23.330Z,26.52
2023-02-17T21:50:35.008Z,27.27
2023-02-17T21:54:46.650Z,22.48
2023-02-17T21:58:58.275Z,25.60
2023-02-17T22:03:31.784Z,25.67
2023-02-17T22:07:43.465Z,28.48
2023-02-17T22:11:55.671Z,23.67
2023-02-17T22:16:07.766Z,24.95
2023-02-17T22:20:19.778Z,28.77
2023-02-17T22:24:31.386Z,30.35
2023-02-17T22:28:43.042Z,23.33
2023-02-17T22:32:54.715Z,27.58
2023-02-17T22:37:06.399Z,26.10
2023-02-17T22:41:21.435Z,27.92
2023-02-17T22:45:33.155Z,27.92
2023-02-17T22:49:44.832Z,26.38
2023-02-17T22:53:57.262Z,26.77
2023-02-17T22:58:08.940Z,33.35
2023-02-17T23:02:20.533Z,25.23
2023-02-17T23:06:35.269Z,22.85
2023-02-17T23:10:46.850Z,24.10
2023-02-17T23:14:58.600Z,26.52
2023-02-17T23:19:13.566Z,29.92
2023-02-17T23:23:25.229Z,23.23
2023-02-17T23:27:36.922Z,27.08
2023-02-17T23:31:48.709Z,24.40
2023-02-17T23:36:06.289Z,27.15
2023-02-17T23:40:19.052Z,27.17
2023-02-17T23:44:30.814Z,27.33
2023-02-17T23:48:42.730Z,21.38
2023-02-17T23:52:54.450Z,21.55
2023-02-17T23:57:06.042Z,22.88
